Time;durP1;ratioP1;P1;durP2;ratioP2;P2;SDS_P1;SDS_P2;PMS_P1;PMS_P2;Temp;Humidity;BMP_temperature;BMP_pressure;BME280_temperature;BME280_humidity;BME280_pressure;Samples;Min_cycle;Max_cycle;Signal;HPM_P1;HPM_P2
2021/06/17 00:01:48;;;;;;;7.03;6.43;;;22.20;99.40;;;;;;5010181;28;20755;-65
2021/06/17 00:04:13;;;;;;;7.13;6.33;;;22.20;99.10;;;;;;5010041;28;20583;-64
2021/06/17 00:06:39;;;;;;;6.07;5.67;;;22.20;99.90;;;;;;5010490;28;20222;-65
2021/06/17 00:09:06;;;;;;;6.97;6.40;;;22.10;99.90;;;;;;5009844;28;20174;-65
2021/06/17 00:11:32;;;;;;;6.73;6.13;;;22.10;99.90;;;;;;5009468;28;20244;-66
2021/06/17 00:13:58;;;;;;;8.20;6.17;;;22.00;99.90;;;;;;5009611;28;20445;-65
2021/06/17 00:16:23;;;;;;;6.67;6.07;;;22.00;99.90;;;;;;5009965;28;20516;-65
2021/06/17 00:18:49;;;;;;;7.03;6.50;;;22.00;99.90;;;;;;5009357;28;20240;-66
2021/06/17 00:21:15;;;;;;;6.73;6.23;;;21.90;99.90;;;;;;5010024;28;20546;-65
2021/06/17 00:23:41;;;;;;;8.07;6.50;;;21.90;99.90;;;;;;5009565;28;20183;-65
2021/06/17 00:26:07;;;;;;;7.10;6.43;;;21.90;99.90;;;;;;5009820;28;20217;-65
2021/06/17 00:28:32;;;;;;;7.13;6.50;;;21.80;99.90;;;;;;5013357;28;20429;-64
2021/06/17 00:30:59;;;;;;;8.87;7.73;;;21.80;99.90;;;;;;5013788;28;20183;-65
2021/06/17 00:33:24;;;;;;;6.80;6.10;;;21.80;99.90;;;;;;5013975;28;20195;-64
2021/06/17 00:35:50;;;;;;;6.73;5.97;;;21.70;99.90;;;;;;5013626;28;20965;-65
2021/06/17 00:38:16;;;;;;;7.50;6.80;;;21.70;99.90;;;;;;5014202;28;20281;-65
2021/06/17 00:40:42;;;;;;;6.37;5.90;;;21.60;99.90;;;;;;5013415;28;20202;-65
2021/06/17 00:43:08;;;;;;;7.90;7.07;;;21.50;99.90;;;;;;5014226;28;20624;-66
2021/06/17 00:45:41;;;;;;;6.80;6.30;;;21.50;99.90;;;;;;5013530;28;20461;-66
2021/06/17 00:48:07;;;;;;;7.40;6.90;;;21.50;99.90;;;;;;5028755;28;20438;-65
2021/06/17 00:50:46;;;;;;;11.50;6.60;;;21.50;99.90;;;;;;5011905;28;20429;-65
2021/06/17 00:53:14;;;;;;;7.97;7.33;;;21.60;99.90;;;;;;5013711;28;20429;-65
2021/06/17 00:55:42;;;;;;;7.50;7.00;;;21.50;99.90;;;;;;5012974;28;20464;-64
2021/06/17 00:58:08;;;;;;;7.10;6.50;;;21.60;99.90;;;;;;5013441;28;20864;-65
2021/06/17 01:00:34;;;;;;;9.30;6.90;;;21.50;99.90;;;;;;5013464;28;20417;-65
2021/06/17 01:03:00;;;;;;;7.27;6.60;;;21.50;99.90;;;;;;5013140;28;20433;-65
2021/06/17 01:05:27;;;;;;;7.10;6.40;;;21.40;99.90;;;;;;5012829;28;20468;-65
2021/06/17 01:08:24;;;;;;;7.77;7.20;;;21.30;99.90;;;;;;5013221;28;20453;-65
2021/06/17 01:11:07;;;;;;;7.97;7.37;;;21.30;99.90;;;;;;5014072;28;20421;-63
2021/06/17 01:13:39;;;;;;;7.33;6.73;;;21.20;99.90;;;;;;5013631;28;20505;-65
2021/06/17 01:16:24;;;;;;;7.33;6.73;;;21.20;99.90;;;;;;5013810;28;20950;-65
2021/06/17 01:18:52;;;;;;;7.33;6.83;;;21.20;99.90;;;;;;5013591;28;20425;-64
2021/06/17 01:21:36;;;;;;;7.10;6.50;;;21.10;99.90;;;;;;5014005;28;20436;-64
2021/06/17 01:24:33;;;;;;;7.97;6.70;;;21.10;99.90;;;;;;5013842;28;20450;-65
2021/06/17 01:27:27;;;;;;;7.20;6.50;;;21.00;99.90;;;;;;5013606;28;20432;-64
2021/06/17 01:29:58;;;;;;;7.10;6.60;;;21.00;99.90;;;;;;5013052;28;20987;-64
2021/06/17 01:32:25;;;;;;;6.50;5.90;;;21.00;99.90;;;;;;5012540;28;20418;-65
2021/06/17 01:34:52;;;;;;;7.13;6.50;;;21.00;99.90;;;;;;5012821;28;20938;-65
2021/06/17 01:37:21;;;;;;;6.73;6.13;;;21.00;99.90;;;;;;4994001;28;20955;-66
2021/06/17 01:39:48;;;;;;;6.40;5.90;;;21.00;99.90;;;;;;4997614;28;20766;-66
2021/06/17 01:42:15;;;;;;;6.53;6.03;;;20.90;99.90;;;;;;5013896;28;20424;-66
2021/06/17 01:44:43;;;;;;;7.13;6.63;;;20.90;99.90;;;;;;5016518;28;20513;-66
2021/06/17 01:47:09;;;;;;;7.10;6.40;;;20.90;99.90;;;;;;5015491;28;20420;-65
2021/06/17 01:49:37;;;;;;;7.13;6.50;;;20.90;99.90;;;;;;5016346;28;20473;-65
2021/06/17 01:52:05;;;;;;;7.27;6.67;;;20.80;99.90;;;;;;5016806;28;20495;-66
2021/06/17 01:54:31;;;;;;;7.93;6.63;;;20.80;99.90;;;;;;5016591;28;20473;-66
2021/06/17 01:56:59;;;;;;;7.50;6.90;;;20.80;99.90;;;;;;5016351;28;20406;-65
2021/06/17 01:59:29;;;;;;;7.67;7.03;;;20.70;99.90;;;;;;5015942;28;20410;-65
2021/06/17 02:01:57;;;;;;;7.40;6.80;;;20.70;99.90;;;;;;5016123;28;20414;-65
2021/06/17 02:04:28;;;;;;;7.50;6.90;;;20.70;99.90;;;;;;5015537;28;20622;-65
2021/06/17 02:06:54;;;;;;;6.93;6.33;;;20.70;99.90;;;;;;5017122;28;20422;-65
2021/06/17 02:09:23;;;;;;;7.53;6.73;;;20.60;99.90;;;;;;5016450;28;20501;-66
2021/06/17 02:11:49;;;;;;;7.67;5.73;;;20.60;99.90;;;;;;5015923;28;20450;-66
2021/06/17 02:14:16;;;;;;;7.53;6.90;;;20.60;99.90;;;;;;5014922;28;20438;-65
2021/06/17 02:16:43;;;;;;;7.37;6.70;;;20.60;99.90;;;;;;5014866;28;20419;-64
2021/06/17 02:19:13;;;;;;;6.80;6.30;;;20.50;99.90;;;;;;5014188;28;20414;-65
2021/06/17 02:21:41;;;;;;;7.13;6.63;;;20.50;99.90;;;;;;5014919;28;20425;-65
2021/06/17 02:24:09;;;;;;;6.77;6.23;;;20.40;99.90;;;;;;5014837;28;20499;-65
2021/06/17 02:26:40;;;;;;;7.93;7.23;;;20.40;99.90;;;;;;5014779;28;20467;-65
2021/06/17 02:29:12;;;;;;;8.20;7.50;;;20.30;99.90;;;;;;5014663;28;20493;-65
2021/06/17 02:31:42;;;;;;;7.90;7.17;;;20.30;99.90;;;;;;5014763;28;20410;-66
2021/06/17 02:34:08;;;;;;;8.73;7.40;;;20.30;99.90;;;;;;5014785;28;20450;-65
2021/06/17 02:36:35;;;;;;;8.17;7.50;;;20.30;99.90;;;;;;5014411;28;20915;-65
2021/06/17 02:39:04;;;;;;;7.53;7.03;;;20.20;99.90;;;;;;5013941;28;20414;-65
2021/06/17 02:41:30;;;;;;;9.03;7.67;;;20.30;99.90;;;;;;5014174;28;20516;-64
2021/06/17 02:43:58;;;;;;;7.90;7.27;;;20.20;99.90;;;;;;5014977;28;20441;-64
2021/06/17 02:46:24;;;;;;;8.33;7.30;;;20.10;99.90;;;;;;5014358;28;20457;-64
2021/06/17 02:48:57;;;;;;;8.10;7.37;;;20.10;99.90;;;;;;5014501;28;20422;-64
2021/06/17 02:51:23;;;;;;;7.90;7.30;;;20.10;99.90;;;;;;5013771;28;20430;-64
2021/06/17 02:53:50;;;;;;;8.43;7.40;;;20.00;99.90;;;;;;5014955;28;20438;-66
2021/06/17 02:56:24;;;;;;;7.77;6.60;;;20.00;99.90;;;;;;5015279;28;20436;-65
2021/06/17 02:59:09;;;;;;;8.43;7.63;;;19.90;99.90;;;;;;5014536;28;20413;-65
2021/06/17 03:01:42;;;;;;;7.13;6.43;;;19.90;99.90;;;;;;5014362;28;20524;-65
2021/06/17 03:04:23;;;;;;;8.43;7.13;;;19.90;99.90;;;;;;5014219;28;20463;-65
2021/06/17 03:06:54;;;;;;;7.80;7.10;;;19.90;99.90;;;;;;5014022;28;20469;-66
2021/06/17 03:09:33;;;;;;;8.17;7.37;;;19.90;99.90;;;;;;5013746;28;20436;-66
2021/06/17 03:11:59;;;;;;;7.33;6.67;;;19.90;99.90;;;;;;5012606;28;20414;-66
2021/06/17 03:14:32;;;;;;;12.83;8.90;;;19.80;99.90;;;;;;5013938;28;20942;-65
2021/06/17 03:16:59;;;;;;;7.60;6.90;;;19.80;99.90;;;;;;5013913;28;20428;-65
2021/06/17 03:19:27;;;;;;;7.00;6.30;;;19.80;99.90;;;;;;5013335;28;21052;-65
2021/06/17 03:21:56;;;;;;;6.53;6.03;;;19.90;99.90;;;;;;5013176;28;20414;-65
2021/06/17 03:24:26;;;;;;;8.27;7.50;;;19.90;99.90;;;;;;5013536;28;20433;-65
2021/06/17 03:26:54;;;;;;;7.17;6.40;;;19.90;99.90;;;;;;5013180;28;20464;-65
2021/06/17 03:29:23;;;;;;;8.07;7.37;;;19.80;99.90;;;;;;5013200;28;20414;-64
2021/06/17 03:31:49;;;;;;;7.43;6.83;;;19.80;99.90;;;;;;5013053;28;20414;-65
2021/06/17 03:34:15;;;;;;;6.90;6.40;;;19.70;99.90;;;;;;5012844;28;20441;-65
2021/06/17 03:36:42;;;;;;;8.13;7.43;;;19.70;99.90;;;;;;5012710;28;20175;-65
2021/06/17 03:39:08;;;;;;;6.93;6.33;;;19.80;99.90;;;;;;5012743;28;20426;-65
2021/06/17 03:41:35;;;;;;;7.27;6.50;;;19.90;99.90;;;;;;5012741;28;20924;-65
2021/06/17 03:44:02;;;;;;;8.83;6.67;;;20.00;99.90;;;;;;5012745;28;20441;-64
2021/06/17 03:46:29;;;;;;;8.23;6.30;;;20.10;99.90;;;;;;5012418;28;20492;-65
2021/06/17 03:48:56;;;;;;;7.50;6.50;;;20.10;99.90;;;;;;5012316;28;20425;-65
2021/06/17 03:51:24;;;;;;;7.57;6.87;;;20.20;99.90;;;;;;5012764;28;20421;-64
2021/06/17 03:53:50;;;;;;;8.43;7.23;;;20.20;99.90;;;;;;5012501;28;20475;-64
2021/06/17 03:56:17;;;;;;;7.93;6.43;;;20.30;99.90;;;;;;5012678;28;20429;-64
2021/06/17 03:58:44;;;;;;;8.60;6.50;;;20.30;99.90;;;;;;5011081;28;20938;-65
2021/06/17 04:01:11;;;;;;;8.97;7.40;;;20.40;99.90;;;;;;5012999;28;20505;-65
2021/06/17 04:03:37;;;;;;;8.63;7.37;;;20.30;99.90;;;;;;5016640;28;20433;-65
2021/06/17 04:06:05;;;;;;;6.73;5.97;;;20.40;99.90;;;;;;5017012;28;20828;-65
2021/06/17 04:08:38;;;;;;;6.53;5.90;;;20.50;99.90;;;;;;5017013;28;20440;-65
2021/06/17 04:11:07;;;;;;;9.03;6.93;;;20.50;99.90;;;;;;5017024;28;20838;-65
2021/06/17 04:13:37;;;;;;;9.87;8.87;;;20.60;99.90;;;;;;5016755;28;20972;-64
2021/06/17 04:16:04;;;;;;;7.80;6.93;;;20.70;99.90;;;;;;5017095;28;20436;-65
2021/06/17 04:18:31;;;;;;;7.50;6.60;;;20.80;99.90;;;;;;5016480;28;20467;-64
2021/06/17 04:20:59;;;;;;;7.73;7.03;;;20.80;99.90;;;;;;5015525;28;20428;-66
2021/06/17 04:23:28;;;;;;;8.60;7.70;;;20.90;99.90;;;;;;5016835;28;20426;-65
2021/06/17 04:25:56;;;;;;;7.00;6.30;;;21.00;99.90;;;;;;5017687;28;20485;-65
2021/06/17 04:28:22;;;;;;;10.60;6.00;;;21.10;99.90;;;;;;5017260;28;20450;-65
2021/06/17 04:30:49;;;;;;;7.33;6.63;;;21.30;99.90;;;;;;5017666;28;20899;-65
2021/06/17 04:33:19;;;;;;;7.73;7.00;;;21.40;99.90;;;;;;5017600;28;20444;-65
2021/06/17 04:35:48;;;;;;;8.10;6.17;;;21.30;99.90;;;;;;5016964;28;20449;-64
2021/06/17 04:38:16;;;;;;;9.40;8.70;;;21.40;99.90;;;;;;5017467;28;20443;-65
2021/06/17 04:40:45;;;;;;;8.13;7.23;;;21.40;99.90;;;;;;5017369;28;20527;-64
2021/06/17 04:43:11;;;;;;;7.60;6.90;;;21.50;99.90;;;;;;5016206;28;20425;-65
2021/06/17 04:45:36;;;;;;;6.40;5.90;;;21.50;99.90;;;;;;5016763;28;20457;-65
2021/06/17 04:48:08;;;;;;;6.90;6.23;;;21.70;99.90;;;;;;5017214;28;20842;-66
2021/06/17 04:50:35;;;;;;;8.10;7.30;;;21.90;99.90;;;;;;5016022;28;20229;-66
2021/06/17 04:53:10;;;;;;;7.70;6.87;;;22.00;99.90;;;;;;5017510;28;20418;-65
2021/06/17 04:55:45;;;;;;;9.73;7.23;;;22.10;99.90;;;;;;5017256;28;20795;-66
2021/06/17 04:58:11;;;;;;;11.10;6.63;;;22.30;99.90;;;;;;5016883;28;20424;-66
2021/06/17 05:00:37;;;;;;;7.70;6.90;;;22.50;99.90;;;;;;5015945;28;20429;-65
2021/06/17 05:03:03;;;;;;;6.73;6.20;;;22.60;99.90;;;;;;5016707;28;20175;-66
2021/06/17 05:05:28;;;;;;;8.30;6.70;;;22.80;99.90;;;;;;5016796;28;20479;-65
2021/06/17 05:10:49;;;;;;;6.70;6.10;;;22.90;99.90;;;;;;5015911;28;20182;-66
2021/06/17 05:13:16;;;;;;;9.63;6.20;;;23.00;99.90;;;;;;5014890;28;20424;-66
2021/06/17 05:15:41;;;;;;;7.53;6.73;;;23.10;99.90;;;;;;5030730;28;20442;-66
2021/06/17 05:18:07;;;;;;;5.90;5.17;;;23.10;99.90;;;;;;5008034;28;20427;-65
2021/06/17 05:20:32;;;;;;;7.30;6.70;;;23.10;99.90;;;;;;4996120;28;20211;-65
2021/06/17 05:22:58;;;;;;;6.83;6.20;;;23.20;99.90;;;;;;5015070;28;20186;-63
2021/06/17 05:25:23;;;;;;;7.63;5.93;;;23.30;99.90;;;;;;5014497;28;20230;-65
2021/06/17 05:27:49;;;;;;;6.93;6.23;;;23.40;99.90;;;;;;5014110;28;20167;-64
2021/06/17 05:30:15;;;;;;;12.80;6.03;;;23.60;99.90;;;;;;5012576;28;20190;-64
2021/06/17 05:32:42;;;;;;;6.93;5.90;;;23.80;99.90;;;;;;5019486;28;20179;-64
2021/06/17 05:35:08;;;;;;;8.13;6.00;;;23.70;99.90;;;;;;5028596;28;20455;-64
2021/06/17 05:37:33;;;;;;;5.30;4.90;;;23.70;99.90;;;;;;5022649;28;20448;-63
2021/06/17 05:39:59;;;;;;;6.40;5.77;;;23.80;99.90;;;;;;5017447;28;20469;-63
2021/06/17 05:42:25;;;;;;;6.10;5.57;;;23.90;99.90;;;;;;5014361;28;20187;-63
2021/06/17 05:44:52;;;;;;;6.97;6.37;;;24.20;99.90;;;;;;5014239;28;20199;-63
2021/06/17 05:47:19;;;;;;;10.30;6.10;;;24.40;99.90;;;;;;5014246;28;20159;-63
2021/06/17 05:49:44;;;;;;;10.90;6.43;;;24.50;99.90;;;;;;5012576;28;20806;-63
2021/06/17 05:52:10;;;;;;;6.40;5.90;;;24.60;99.90;;;;;;5028055;28;20421;-63
2021/06/17 05:54:35;;;;;;;6.83;6.07;;;24.70;99.90;;;;;;5015224;28;20225;-63
2021/06/17 05:57:01;;;;;;;6.77;6.17;;;24.80;99.90;;;;;;5014316;28;20177;-63
2021/06/17 05:59:26;;;;;;;7.40;5.73;;;24.70;99.90;;;;;;5012615;28;20197;-63
2021/06/17 06:01:52;;;;;;;5.90;5.27;;;24.60;99.90;;;;;;5001733;28;20556;-63
2021/06/17 06:04:17;;;;;;;8.57;6.30;;;24.50;99.90;;;;;;4994103;28;20759;-63
2021/06/17 06:06:43;;;;;;;5.70;5.20;;;24.50;99.90;;;;;;4994038;28;20250;-63
2021/06/17 06:09:09;;;;;;;9.43;6.03;;;24.70;99.40;;;;;;4994080;28;20546;-63
2021/06/17 06:11:35;;;;;;;5.77;5.37;;;24.70;99.90;;;;;;4994177;28;20259;-63
2021/06/17 06:14:00;;;;;;;5.53;5.03;;;24.70;99.40;;;;;;4994216;28;20568;-66
2021/06/17 06:16:28;;;;;;;6.10;5.47;;;24.70;98.90;;;;;;4996412;28;20426;-63
2021/06/17 06:18:54;;;;;;;5.10;4.80;;;24.90;98.70;;;;;;4987895;28;20179;-63
2021/06/17 06:21:19;;;;;;;6.53;5.70;;;25.10;98.70;;;;;;4992938;28;20907;-64
2021/06/17 06:23:45;;;;;;;9.23;6.00;;;25.30;98.20;;;;;;5012738;28;20737;-64
2021/06/17 06:26:10;;;;;;;5.50;5.00;;;25.60;98.10;;;;;;5012991;28;20678;-63
2021/06/17 06:28:36;;;;;;;7.70;5.97;;;25.70;97.90;;;;;;5008442;28;20166;-64
2021/06/17 06:31:01;;;;;;;7.27;5.73;;;25.80;97.80;;;;;;5013145;28;20305;-64
2021/06/17 06:33:27;;;;;;;14.13;6.10;;;25.90;97.40;;;;;;5012736;28;20187;-64
2021/06/17 06:35:53;;;;;;;8.67;5.93;;;26.20;97.40;;;;;;5013069;28;20167;-64
2021/06/17 06:38:19;;;;;;;9.17;5.40;;;26.40;96.80;;;;;;5009078;28;20529;-64
2021/06/17 06:40:45;;;;;;;5.93;5.30;;;26.80;96.60;;;;;;5013045;28;20181;-64
2021/06/17 06:43:13;;;;;;;6.10;5.67;;;27.10;95.60;;;;;;5012795;28;20436;-63
2021/06/17 06:45:39;;;;;;;5.90;5.03;;;26.90;95.30;;;;;;5012594;28;20195;-64
2021/06/17 06:48:05;;;;;;;7.50;5.23;;;26.90;95.40;;;;;;5008794;28;20440;-64
2021/06/17 06:50:31;;;;;;;4.87;4.37;;;27.20;95.80;;;;;;5009989;28;20421;-64
2021/06/17 06:52:56;;;;;;;5.67;5.23;;;27.40;93.80;;;;;;5010745;28;20175;-64
2021/06/17 06:55:22;;;;;;;5.77;5.07;;;27.30;92.60;;;;;;5012421;28;20963;-62
2021/06/17 06:57:48;;;;;;;5.83;5.23;;;27.50;92.60;;;;;;5005926;28;20190;-64
2021/06/17 07:00:16;;;;;;;10.97;5.20;;;27.50;92.60;;;;;;5012237;28;20167;-63
2021/06/17 07:02:42;;;;;;;10.73;5.67;;;27.40;93.10;;;;;;5012341;28;20483;-64
2021/06/17 07:05:09;;;;;;;5.00;4.50;;;27.50;92.40;;;;;;5012256;28;20469;-64
2021/06/17 07:07:34;;;;;;;5.30;4.40;;;27.70;93.00;;;;;;5007712;28;20170;-63
2021/06/17 07:10:00;;;;;;;6.00;5.40;;;28.00;91.00;;;;;;5010909;28;20426;-64
2021/06/17 07:12:26;;;;;;;11.63;5.10;;;28.20;90.60;;;;;;5011906;28;20173;-64
2021/06/17 07:14:51;;;;;;;4.97;4.23;;;28.60;88.20;;;;;;5012284;28;20193;-64
2021/06/17 07:17:17;;;;;;;4.87;4.47;;;28.50;85.70;;;;;;5012112;28;20624;-64
2021/06/17 07:19:43;;;;;;;8.30;4.70;;;28.50;84.10;;;;;;5008047;28;20182;-64
2021/06/17 07:22:09;;;;;;;5.40;4.83;;;28.30;83.10;;;;;;5012104;28;20166;-63
2021/06/17 07:24:35;;;;;;;4.90;4.50;;;28.40;81.00;;;;;;5012016;28;20218;-64
2021/06/17 07:27:02;;;;;;;3.97;3.67;;;28.30;81.30;;;;;;5012062;28;20486;-64
2021/06/17 07:29:28;;;;;;;4.60;4.30;;;28.50;83.20;;;;;;5008424;28;20166;-64
2021/06/17 07:31:54;;;;;;;5.87;4.57;;;28.70;81.50;;;;;;5011848;28;20430;-64
2021/06/17 07:34:21;;;;;;;5.20;4.73;;;28.80;79.90;;;;;;5011937;28;20191;-64
2021/06/17 07:36:47;;;;;;;4.70;4.40;;;29.10;79.70;;;;;;5011461;28;20197;-64
2021/06/17 07:39:13;;;;;;;5.10;4.23;;;29.30;76.60;;;;;;5007821;28;20480;-64
2021/06/17 07:41:39;;;;;;;4.30;3.90;;;29.30;75.30;;;;;;5012011;28;20450;-63
2021/06/17 07:44:05;;;;;;;4.10;3.67;;;29.40;73.50;;;;;;5009954;28;20191;-64
2021/06/17 07:46:31;;;;;;;5.10;4.70;;;29.30;74.60;;;;;;5011107;28;20317;-64
2021/06/17 07:48:58;;;;;;;4.17;3.80;;;29.60;74.50;;;;;;5007754;28;20432;-64
2021/06/17 07:51:26;;;;;;;6.57;4.17;;;29.80;74.60;;;;;;5011744;28;20414;-64
2021/06/17 07:53:51;;;;;;;4.70;4.30;;;29.90;74.20;;;;;;5011694;28;20441;-64
2021/06/17 07:56:17;;;;;;;5.40;4.70;;;30.30;74.20;;;;;;5011758;28;20425;-64
2021/06/17 07:58:43;;;;;;;7.57;4.87;;;30.70;74.00;;;;;;5007486;28;20186;-64
2021/06/17 08:01:10;;;;;;;5.20;4.80;;;31.10;72.10;;;;;;5011627;28;20171;-64
2021/06/17 08:03:35;;;;;;;5.03;4.63;;;31.40;70.80;;;;;;5010561;28;20495;-64
2021/06/17 08:06:01;;;;;;;4.40;4.10;;;31.60;70.20;;;;;;5011698;28;20934;-64
2021/06/17 08:11:50;;;;;;;5.20;4.80;;;32.00;69.40;;;;;;5005737;28;20269;-63
2021/06/17 08:14:20;;;;;;;4.80;4.50;;;32.10;67.70;;;;;;5006565;28;20898;-62
2021/06/17 08:16:46;;;;;;;4.90;4.47;;;32.00;66.90;;;;;;4986711;28;21014;-62
2021/06/17 08:19:11;;;;;;;4.57;4.27;;;32.10;69.10;;;;;;4998802;28;20443;-63
2021/06/17 08:21:37;;;;;;;5.93;4.53;;;32.40;67.50;;;;;;5001043;28;20179;-63
2021/06/17 08:24:04;;;;;;;5.13;4.73;;;32.30;66.80;;;;;;5001018;28;20187;-63
2021/06/17 08:26:30;;;;;;;5.23;4.43;;;32.40;65.60;;;;;;5001707;28;20210;-63
2021/06/17 08:28:56;;;;;;;6.40;5.90;;;32.60;64.90;;;;;;4999474;28;20457;-62
2021/06/17 08:31:22;;;;;;;6.37;5.77;;;32.70;64.20;;;;;;5001787;28;21024;-62
2021/06/17 08:33:48;;;;;;;7.10;6.30;;;32.60;65.10;;;;;;5000644;28;20199;-63
2021/06/17 08:36:15;;;;;;;4.83;4.43;;;32.80;64.50;;;;;;5001244;28;20592;-63
2021/06/17 08:38:42;;;;;;;5.17;4.77;;;32.80;63.70;;;;;;4998007;28;20195;-63
2021/06/17 08:41:08;;;;;;;6.03;4.00;;;33.20;63.50;;;;;;5000993;28;20433;-63
2021/06/17 08:43:34;;;;;;;6.70;4.43;;;33.40;59.40;;;;;;5001228;28;20430;-63
2021/06/17 08:45:59;;;;;;;5.23;4.20;;;33.60;59.90;;;;;;5001243;28;20912;-63
2021/06/17 08:48:25;;;;;;;4.83;4.43;;;33.70;59.20;;;;;;4998832;28;20425;-62
2021/06/17 08:50:53;;;;;;;4.20;3.90;;;34.00;59.50;;;;;;5003148;28;20191;-63
2021/06/17 08:53:19;;;;;;;5.40;5.00;;;33.60;58.60;;;;;;5002895;28;20217;-62
2021/06/17 08:55:45;;;;;;;5.27;4.97;;;33.50;58.10;;;;;;5003645;28;20446;-62
2021/06/17 08:58:10;;;;;;;6.30;4.53;;;33.50;58.20;;;;;;5003243;28;20219;-63
2021/06/17 09:00:39;;;;;;;6.50;4.20;;;33.50;58.80;;;;;;5003546;28;20555;-63
2021/06/17 09:03:15;;;;;;;7.73;4.53;;;33.70;57.40;;;;;;5027806;28;20252;-63
2021/06/17 09:05:44;;;;;;;4.93;4.50;;;33.80;57.10;;;;;;5022459;28;20456;-63
2021/06/17 09:08:11;;;;;;;5.17;4.77;;;33.90;56.50;;;;;;5011807;28;20457;-63
2021/06/17 09:10:40;;;;;;;4.20;3.93;;;34.20;55.90;;;;;;5013748;28;20445;-63
2021/06/17 09:13:06;;;;;;;5.57;5.10;;;34.40;56.60;;;;;;5014539;28;20429;-63
2021/06/17 09:15:42;;;;;;;5.23;4.77;;;35.10;56.70;;;;;;5014239;28;20430;-63
2021/06/17 09:18:13;;;;;;;5.23;4.53;;;35.60;55.50;;;;;;5011132;28;20588;-63
2021/06/17 09:20:43;;;;;;;5.77;4.10;;;36.10;53.50;;;;;;5012312;28;20541;-63
2021/06/17 09:23:28;;;;;;;17.10;7.27;;;36.20;53.60;;;;;;5014041;28;20429;-63
2021/06/17 09:26:01;;;;;;;5.53;5.03;;;36.40;53.00;;;;;;5014602;28;20457;-63
2021/06/17 09:28:44;;;;;;;5.00;4.70;;;36.00;52.40;;;;;;5011931;28;20512;-63
2021/06/17 09:31:33;;;;;;;5.07;4.67;;;36.10;51.80;;;;;;5032507;28;20436;-63
2021/06/17 09:34:00;;;;;;;6.77;4.80;;;35.60;52.40;;;;;;5014324;28;20826;-63
2021/06/17 09:36:29;;;;;;;5.03;4.40;;;36.00;51.50;;;;;;5011800;28;20507;-63
2021/06/17 09:38:57;;;;;;;5.83;5.43;;;36.50;50.50;;;;;;5006092;28;20476;-63
2021/06/17 09:41:39;;;;;;;5.23;4.83;;;36.50;49.90;;;;;;5011486;28;20426;-63
2021/06/17 09:44:26;;;;;;;4.30;4.00;;;36.80;50.70;;;;;;5009530;28;20943;-63
2021/06/17 09:47:10;;;;;;;5.33;4.90;;;37.30;48.90;;;;;;5009642;28;20572;-62
2021/06/17 09:49:40;;;;;;;6.67;5.10;;;37.50;49.70;;;;;;5007409;28;20908;-63
2021/06/17 09:52:07;;;;;;;5.70;5.20;;;37.80;49.70;;;;;;5011680;28;20414;-63
2021/06/17 09:54:33;;;;;;;5.83;5.10;;;38.00;49.30;;;;;;5008606;28;20800;-63
2021/06/17 09:57:03;;;;;;;6.03;5.30;;;38.10;49.60;;;;;;5009545;28;20417;-62
2021/06/17 09:59:35;;;;;;;5.17;4.70;;;38.40;49.90;;;;;;5006753;28;20211;-63
2021/06/17 10:02:02;;;;;;;6.00;5.40;;;38.70;49.40;;;;;;5014031;28;20489;-63
2021/06/17 10:04:28;;;;;;;8.80;5.07;;;37.90;49.70;;;;;;5013696;28;20449;-63
2021/06/17 10:06:54;;;;;;;8.83;5.20;;;37.00;50.80;;;;;;5009612;28;20492;-62
2021/06/17 10:09:20;;;;;;;6.60;5.20;;;36.50;51.30;;;;;;5005064;28;20571;-63
2021/06/17 10:11:47;;;;;;;5.73;5.00;;;36.40;51.40;;;;;;5008376;28;20655;-63
2021/06/17 10:14:13;;;;;;;5.93;4.87;;;35.80;51.20;;;;;;5009291;28;20496;-63
2021/06/17 10:16:42;;;;;;;5.57;5.17;;;35.30;51.90;;;;;;5008904;28;20862;-63
2021/06/17 10:19:12;;;;;;;6.93;5.90;;;35.00;52.50;;;;;;5007751;28;20618;-63
2021/06/17 10:21:37;;;;;;;6.40;5.90;;;35.10;52.60;;;;;;5012791;28;20916;-63
2021/06/17 10:24:11;;;;;;;7.27;5.40;;;36.20;52.20;;;;;;5013379;28;20512;-64
2021/06/17 10:26:42;;;;;;;6.50;6.00;;;37.70;50.20;;;;;;5010460;28;20269;-63
2021/06/17 10:29:27;;;;;;;7.43;5.43;;;39.30;48.00;;;;;;5004636;28;20445;-64
2021/06/17 10:31:54;;;;;;;5.60;5.10;;;40.50;47.10;;;;;;5013284;28;20429;-63
2021/06/17 10:34:22;;;;;;;5.87;5.47;;;41.10;46.00;;;;;;5011090;28;20422;-63
2021/06/17 10:37:19;;;;;;;5.50;5.10;;;41.30;45.70;;;;;;5013422;28;20456;-63
2021/06/17 10:39:50;;;;;;;6.63;6.13;;;41.50;45.00;;;;;;5010581;28;20824;-64
2021/06/17 10:42:16;;;;;;;5.57;5.17;;;42.20;43.10;;;;;;5013359;28;20432;-64
2021/06/17 10:44:49;;;;;;;5.10;4.80;;;42.70;42.50;;;;;;5009147;28;20829;-63
2021/06/17 10:47:44;;;;;;;5.90;5.10;;;43.20;42.80;;;;;;4991013;28;20435;-64
2021/06/17 10:50:14;;;;;;;6.67;5.97;;;43.60;41.50;;;;;;5006654;28;20857;-64
2021/06/17 10:52:42;;;;;;;5.50;5.00;;;44.60;40.20;;;;;;5012872;28;20414;-64
2021/06/17 10:55:16;;;;;;;5.73;5.33;;;45.10;40.10;;;;;;5012738;28;20405;-64
2021/06/17 10:57:45;;;;;;;5.60;5.07;;;45.40;38.60;;;;;;5010556;28;20941;-63
2021/06/17 11:00:28;;;;;;;6.30;5.70;;;45.80;38.20;;;;;;5011506;28;20861;-64
2021/06/17 11:03:03;;;;;;;5.43;5.00;;;46.10;37.40;;;;;;5012739;28;20452;-64
2021/06/17 11:05:39;;;;;;;5.80;5.23;;;45.90;37.10;;;;;;5010377;28;20518;-64
2021/06/17 11:10:47;;;;;;;6.10;5.80;;;46.50;36.30;;;;;;5013683;28;20448;-64
2021/06/17 11:13:26;;;;;;;6.87;5.37;;;46.70;35.30;;;;;;5023477;28;20518;-64
2021/06/17 11:15:52;;;;;;;6.07;5.57;;;46.70;35.70;;;;;;5032248;28;20423;-64
2021/06/17 11:18:40;;;;;;;6.50;6.10;;;46.30;35.40;;;;;;5021812;28;20429;-63
2021/06/17 11:21:06;;;;;;;7.13;6.47;;;45.90;35.00;;;;;;5009218;28;20448;-64
2021/06/17 11:23:32;;;;;;;5.93;5.53;;;44.70;35.30;;;;;;5011962;28;20772;-64
2021/06/17 11:25:59;;;;;;;7.30;5.77;;;43.40;36.00;;;;;;4994957;28;20510;-64
2021/06/17 11:28:48;;;;;;;7.43;5.73;;;43.40;36.70;;;;;;4998073;28;20317;-64
2021/06/17 11:31:37;;;;;;;6.73;6.23;;;43.20;36.00;;;;;;4992798;28;20411;-64
2021/06/17 11:34:03;;;;;;;5.80;5.40;;;43.10;36.90;;;;;;4999495;28;20487;-64
2021/06/17 11:36:28;;;;;;;8.13;6.10;;;44.50;35.80;;;;;;5005708;28;20454;-64
2021/06/17 11:38:54;;;;;;;6.00;5.50;;;46.10;35.20;;;;;;4994290;28;20281;-64
2021/06/17 11:41:24;;;;;;;7.43;5.60;;;45.70;33.90;;;;;;4992495;28;20223;-64
2021/06/17 11:44:03;;;;;;;7.00;6.13;;;43.90;35.00;;;;;;4991339;28;20175;-64
2021/06/17 11:46:38;;;;;;;6.87;6.03;;;43.30;36.10;;;;;;4996845;28;20458;-64
2021/06/17 11:49:09;;;;;;;6.97;6.57;;;44.30;36.10;;;;;;5008906;28;20508;-64
2021/06/17 11:51:51;;;;;;;7.03;6.63;;;44.00;35.50;;;;;;5011837;28;20493;-64
2021/06/17 11:54:21;;;;;;;5.60;5.30;;;44.90;34.70;;;;;;5012122;28;20414;-64
2021/06/17 11:56:53;;;;;;;6.87;6.30;;;44.00;35.70;;;;;;5011904;28;20483;-64
2021/06/17 11:59:19;;;;;;;8.50;5.60;;;45.60;34.70;;;;;;5009357;28;20441;-63
2021/06/17 12:02:06;;;;;;;6.80;5.30;;;46.90;34.30;;;;;;5011806;28;20421;-64
2021/06/17 12:04:38;;;;;;;6.67;6.10;;;47.60;33.20;;;;;;5011791;28;20662;-64
2021/06/17 12:07:04;;;;;;;7.00;6.50;;;48.50;32.90;;;;;;4996907;28;20569;-64
2021/06/17 12:09:30;;;;;;;6.73;6.20;;;49.20;32.20;;;;;;5006195;28;20438;-64
2021/06/17 12:12:16;;;;;;;6.90;6.40;;;49.30;31.70;;;;;;5011828;28;20431;-64
2021/06/17 12:14:43;;;;;;;7.30;6.87;;;49.00;31.70;;;;;;5011576;28;20190;-64
2021/06/17 12:17:09;;;;;;;7.53;6.90;;;50.20;30.80;;;;;;5011692;28;20453;-64
2021/06/17 12:19:35;;;;;;;6.10;5.80;;;51.00;30.20;;;;;;5008474;28;20452;-64
2021/06/17 12:22:08;;;;;;;7.53;7.03;;;50.50;30.20;;;;;;5011882;28;20448;-64
2021/06/17 12:24:34;;;;;;;6.27;5.87;;;50.30;30.20;;;;;;5015549;28;20225;-64
2021/06/17 12:26:59;;;;;;;7.17;6.57;;;50.30;30.00;;;;;;5015651;28;20429;-64
2021/06/17 12:29:26;;;;;;;5.90;5.50;;;50.00;30.50;;;;;;5011226;28;20198;-64
2021/06/17 12:31:56;;;;;;;6.33;6.10;;;50.30;30.50;;;;;;5014990;28;20171;-64
2021/06/17 12:34:22;;;;;;;6.70;6.20;;;49.80;30.20;;;;;;5014394;28;20509;-64
2021/06/17 12:37:09;;;;;;;6.70;6.20;;;50.30;30.00;;;;;;5009977;28;20894;-64
2021/06/17 12:39:36;;;;;;;9.20;8.33;;;50.20;29.70;;;;;;5003501;28;20198;-64
2021/06/17 12:42:09;;;;;;;6.70;6.40;;;50.90;29.50;;;;;;5012301;28;20429;-64
2021/06/17 12:44:40;;;;;;;7.27;6.87;;;50.00;29.70;;;;;;5012206;28;20429;-64
2021/06/17 12:47:14;;;;;;;6.40;5.63;;;48.60;29.80;;;;;;5011884;28;20472;-64
2021/06/17 12:52:29;;;;;;;6.67;6.27;;;48.50;30.50;;;;;;5011959;28;20432;-64
2021/06/17 12:54:55;;;;;;;6.90;6.40;;;48.30;30.70;;;;;;5011683;28;20954;-64
2021/06/17 12:57:23;;;;;;;5.73;5.43;;;47.80;30.70;;;;;;5009911;28;20186;-64
2021/06/17 12:59:54;;;;;;;6.20;5.40;;;47.50;31.00;;;;;;5008964;28;20203;-64
2021/06/17 13:02:22;;;;;;;6.87;6.37;;;47.60;30.80;;;;;;5011846;28;20907;-64
2021/06/17 13:05:05;;;;;;;6.53;6.00;;;46.60;30.20;;;;;;5011867;28;20425;-64
2021/06/17 13:07:31;;;;;;;7.13;6.43;;;46.30;31.60;;;;;;5011155;28;20814;-63